Latest Weather Observations for Melbourne (Olympic Park)

IDV60901

Issued at 7:41 pm EST Thursday 2 July 2015 (issued every 10 minutes, with the page automatically refreshed every 10 minutes)

About weather observations | Map of Melbourne area stations | Latest observations for Melbourne area | Other Formats
Station Details ID: 086338 Name: MELBOURNE (OLYMPIC PARK) Lat: -37.83 Lon: 144.98 Height: 7.53 m
Data from the previous 72 hours. | See also: Recent months at Melbourne (Olympic Park)
Date/Time
EST
Tmp

°C
App
Tmp
°C
Dew
Point
°C
Rel
Hum
%
Delta-T

°C
Wind Press
QNH
hPa
Press
MSL
hPa
Rain
since
9 am
mm
Dir
 
Spd
km/h
Gust
km/h
Spd
kts
Gust
kts
02/07:30pm 9.4 7.0 5.4 76 1.8 SW 7 15 4 8 1027.4 1027.4 2.0
02/07:00pm 9.3 5.9 5.9 79 1.5 SSW 13 26 7 14 1027.1 1027.1 1.8
02/06:30pm 10.1 7.3 5.3 72 2.2 SW 9 19 5 10 1026.7 1026.7 1.8
02/06:00pm 10.5 6.6 5.5 71 2.3 SSW 15 28 8 15 1026.5 1026.5 1.6
02/05:30pm 10.8 6.2 3.8 62 3.1 SSW 17 28 9 15 1026.3 1026.3 1.6
02/05:00pm 11.0 7.1 3.5 60 3.3 SSW 13 24 7 13 1025.9 1025.9 1.6
02/04:30pm 11.2 7.4 3.7 60 3.3 SSW 13 28 7 15 1025.6 1025.6 1.6
02/04:00pm 11.2 8.2 4.2 62 3.1 SW 9 22 5 12 1025.3 1025.3 1.6
02/03:30pm 11.3 8.4 4.5 63 3.1 SSW 9 22 5 12 1025.2 1025.2 1.6
02/03:00pm 10.8 7.6 5.3 69 2.5 SSW 11 20 6 11 1025.1 1025.1 1.6
02/02:30pm 9.6 5.2 4.8 72 2.1 SSW 17 39 9 21 1024.8 1024.8 1.6
02/02:00pm 11.4 6.9 4.4 62 3.1 SW 17 35 9 19 1024.3 1024.3 1.6
02/01:30pm 11.1 6.4 5.0 66 2.8 SSW 19 35 10 19 1024.0 1024.0 1.6
02/01:00pm 10.5 6.1 4.6 67 2.6 SSW 17 32 9 17 1024.0 1024.0 1.6
02/12:30pm 11.1 6.6 4.3 63 3.0 SSW 17 32 9 17 1023.5 1023.5 1.6
02/12:00pm 10.8 5.8 3.4 60 3.2 SW 19 39 10 21 1023.4 1023.4 1.6
02/11:30am 9.9 5.6 3.4 64 2.8 SW 15 35 8 19 1023.6 1023.6 1.6
02/11:00am 10.4 5.9 4.3 66 2.7 W 17 32 9 17 1023.2 1023.2 1.6
02/10:30am 9.6 6.7 6.3 80 1.5 W 11 19 6 10 1022.8 1022.8 1.6
02/10:00am 8.8 6.0 6.8 87 0.9 WSW 11 20 6 11 1022.8 1022.8 1.6
02/09:30am 9.4 6.0 5.9 79 1.6 SW 13 28 7 15 1022.1 1022.1 0.4
02/09:00am 10.4 6.4 5.0 69 2.4 W 15 28 8 15 1021.3 1021.3 0.6
02/08:30am 11.0 7.3 4.7 65 2.8 WNW 13 24 7 13 1020.7 1020.7 0.6
02/08:00am 10.5 7.9 4.4 66 2.7 NW 7 20 4 11 1020.4 1020.4 0.6
02/07:30am 10.8 7.5 4.5 65 2.8 WNW 11 17 6 9 1020.2 1020.2 0.6
02/07:00am 11.0 7.5 5.5 69 2.5 NW 13 22 7 12 1019.9 1019.9 0.6
02/06:30am 11.3 7.9 6.0 70 2.5 W 13 28 7 15 1019.9 1019.9 0.6
02/06:00am 11.4 8.6 7.1 75 2.0 W 11 32 6 17 1019.5 1019.5 0.6
02/05:30am 11.8 9.7 8.3 79 1.7 W 9 20 5 11 1019.3 1019.3 0.6
02/05:00am 11.9 9.9 8.7 81 1.6 WNW 9 20 5 11 1019.1 1019.1 0.6
02/04:30am 12.2 8.7 8.9 80 1.6 NW 17 28 9 15 1018.9 1018.9 0.4
02/04:00am 11.3 9.3 8.7 84 1.3 NNW 9 15 5 8 1019.0 1019.0 0.2
02/03:30am 12.0 7.9 7.7 75 2.1 N 19 24 10 13 1018.7 1018.7 0.0
02/03:00am 11.9 9.0 8.0 77 1.9 N 13 19 7 10 1019.0 1019.0 0.0
02/02:30am 11.6 8.6 7.9 78 1.8 N 13 20 7 11 1019.1 1019.1 0.0
02/02:00am 12.1 8.2 7.2 72 2.4 N 17 26 9 14 1018.9 1018.9 0.0
02/01:30am 12.3 8.4 7.0 70 2.5 N 17 24 9 13 1019.2 1019.2 0.0
02/01:00am 11.5 8.3 6.8 73 2.2 N 13 19 7 10 1019.7 1019.7 0.0
02/12:30am 10.9 7.5 5.9 71 2.3 N 13 19 7 10 1020.3 1020.3 0.0
02/12:00am 11.3 7.2 6.0 70 2.5 N 17 26 9 14 1020.8 1020.8 0.0
 
Date/Time
EST
Tmp

°C
App
Tmp
°C
Dew
Point
°C
Rel
Hum
%
Delta-T

°C
Wind Press
QNH
hPa
Press
MSL
hPa
Rain
since
9 am
mm
Dir
 
Spd
km/h
Gust
km/h
Spd
kts
Gust
kts
01/11:30pm 11.3 7.5 6.0 70 2.5 N 15 26 8 14 1021.3 1021.3 0.0
01/11:00pm 11.1 7.6 5.4 68 2.6 N 13 22 7 12 1021.6 1021.6 0.0
01/10:30pm 11.4 7.4 5.1 65 2.9 N 15 22 8 12 1021.8 1021.8 0.0
01/10:00pm 11.5 7.1 4.7 63 3.1 N 17 24 9 13 1022.1 1022.1 0.0
01/09:30pm 11.8 7.4 4.5 61 3.3 N 17 22 9 12 1022.2 1022.2 0.0
01/09:00pm 11.5 6.5 3.8 59 3.4 N 19 24 10 13 1022.2 1022.2 0.0
01/08:30pm 11.7 7.4 3.5 57 3.6 N 15 22 8 12 1022.4 1022.4 0.0
01/08:00pm 11.5 6.8 3.3 57 3.6 NNW 17 22 9 12 1022.3 1022.3 0.0
01/07:30pm 12.2 7.5 3.4 55 3.9 NNW 17 26 9 14 1022.5 1022.5 0.0
01/07:00pm 12.4 7.4 3.4 54 4.0 NNW 19 26 10 14 1022.3 1022.3 0.0
01/06:30pm 12.4 8.1 3.4 54 4.0 NNW 15 22 8 12 1022.3 1022.3 0.0
01/06:00pm 12.6 8.0 3.5 54 4.0 NNW 17 24 9 13 1022.4 1022.4 0.0
01/05:30pm 12.7 8.4 3.4 53 4.1 N 15 22 8 12 1022.4 1022.4 0.0
01/05:00pm 13.3 9.5 3.7 52 4.3 NNW 13 17 7 9 1022.9 1022.9 0.0
01/04:30pm 13.4 9.8 3.2 50 4.5 N 11 17 6 9 1023.0 1023.0 0.0
01/04:00pm 14.1 10.5 3.0 47 4.9 NW 11 19 6 10 1023.2 1023.2 0.0
01/03:30pm 13.9 10.7 2.8 47 4.9 NNW 9 17 5 9 1023.3 1023.3 0.0
01/03:00pm 13.7 8.5 2.3 46 5.0 NNW 19 28 10 15 1023.5 1023.5 0.0
01/02:30pm 13.9 10.2 2.2 45 5.1 WNW 11 22 6 12 1024.0 1024.0 0.0
01/02:00pm 14.5 10.8 2.4 44 5.3 NW 11 19 6 10 1024.2 1024.2 0.0
01/01:30pm 14.2 10.1 2.1 44 5.3 NNW 13 24 7 13 1024.4 1024.4 0.0
01/01:00pm 13.9 9.2 0.9 41 5.5 NNW 15 26 8 14 1025.1 1025.1 0.0
01/12:30pm 13.7 8.0 0.7 41 5.5 NNW 20 32 11 17 1025.4 1025.4 0.0
01/12:00pm 13.4 8.2 0.4 41 5.4 NNW 17 24 9 13 1026.0 1026.0 0.0
01/11:30am 13.3 8.6 0.7 42 5.3 NW 15 28 8 15 1026.6 1026.6 0.0
01/11:00am 13.1 9.2 1.1 44 5.1 NW 11 20 6 11 1027.3 1027.3 0.0
01/10:30am 12.4 8.6 1.7 48 4.6 NW 11 24 6 13 1027.8 1027.8 0.0
01/10:00am 12.0 8.4 2.7 53 4.0 NW 11 17 6 9 1028.2 1028.2 0.0
01/09:30am 11.8 7.8 3.1 55 3.8 NW 13 20 7 11 1028.3 1028.3 0.0
01/09:00am 11.8 8.4 1.7 50 4.3 NW 9 15 5 8 1028.1 1028.1 0.0
01/08:30am 11.0 8.6 4.2 63 3.0 W 6 11 3 6 1028.1 1028.1 0.0
01/08:00am 10.6 8.7 6.6 76 1.9 W 6 13 3 7 1028.0 1028.0 0.0
01/07:30am 10.1 9.6 7.7 85 1.2 CALM 0 0 0 0 1027.8 1027.8 0.0
01/07:00am 10.2 9.3 7.8 85 1.1 NNW 2 7 1 4 1027.5 1027.5 0.0
01/06:30am 10.2 8.0 8.0 86 1.1 NNE 9 11 5 6 1027.3 1027.3 0.0
01/06:00am 10.4 8.7 7.6 83 1.3 NNE 6 7 3 4 1027.3 1027.3 0.0
01/05:30am 10.4 9.1 7.8 84 1.3 NW 4 9 2 5 1027.2 1027.2 0.0
01/05:00am 10.2 9.7 7.8 85 1.1 CALM 0 0 0 0 1027.4 1027.4 0.0
01/04:30am 10.2 9.3 7.8 85 1.2 WSW 2 6 1 3 1027.5 1027.5 0.0
01/04:00am 10.2 9.7 7.8 85 1.1 CALM 0 6 0 3 1027.3 1027.3 0.0
01/03:30am 10.5 9.6 7.9 84 1.3 NW 2 7 1 4 1027.5 1027.5 0.0
01/03:00am 10.6 9.3 7.7 82 1.4 WNW 4 7 2 4 1027.7 1027.7 0.0
01/02:30am 10.6 8.7 7.7 82 1.4 NW 7 11 4 6 1027.8 1027.8 0.0
01/02:00am 10.6 8.4 7.7 82 1.4 W 9 15 5 8 1027.9 1027.9 0.0
01/01:30am 10.8 8.9 7.5 80 1.6 W 7 15 4 8 1028.1 1028.1 0.0
01/01:00am 11.0 9.2 7.1 77 1.8 WNW 6 15 3 8 1028.3 1028.3 0.0
01/12:30am 11.1 9.2 6.8 75 2.0 WNW 6 9 3 5 1028.3 1028.3 0.0
01/12:00am 11.2 9.3 6.9 75 2.0 WNW 6 15 3 8 1028.4 1028.4 0.0
 
Date/Time
EST
Tmp

°C
App
Tmp
°C
Dew
Point
°C
Rel
Hum
%
Delta-T

°C
Wind Press
QNH
hPa
Press
MSL
hPa
Rain
since
9 am
mm
Dir
 
Spd
km/h
Gust
km/h
Spd
kts
Gust
kts
30/11:30pm 11.3 9.9 7.2 76 2.0 W 4 11 2 6 1028.7 1028.7 0.0
30/11:00pm 11.5 10.0 7.0 74 2.1 WSW 4 9 2 5 1028.7 1028.7 0.0
30/10:30pm 11.6 10.2 7.3 75 2.1 W 4 9 2 5 1028.7 1028.7 0.0
30/10:00pm 11.7 9.9 7.0 73 2.2 SW 6 11 3 6 1028.6 1028.6 0.0
30/09:30pm 11.7 10.7 7.2 74 2.2 SW 2 6 1 3 1028.5 1028.5 0.0
30/09:00pm 11.9 10.2 7.4 74 2.2 SSW 6 9 3 5 1028.5 1028.5 0.0
30/08:30pm 12.2 10.0 6.0 66 2.9 W 7 15 4 8 1028.4 1028.4 0.0
30/08:00pm 11.1 10.1 5.6 69 2.5 CALM 0 2 0 1 1028.3 1028.3 0.0
30/07:30pm 11.3 9.9 5.4 67 2.7 WSW 2 7 1 4 1028.2 1028.2 0.0
30/07:00pm 11.3 10.2 5.2 66 2.8 CALM 0 0 0 0 1028.0 1028.0 0.0
30/06:30pm 11.4 9.9 4.8 64 3.0 ESE 2 7 1 4 1027.9 1027.9 0.0
30/06:00pm 11.2 10.1 5.1 66 2.8 CALM 0 0 0 0 1027.8 1027.8 0.0
30/05:30pm 11.5 10.5 5.4 66 2.8 CALM 0 0 0 0 1027.6 1027.6 0.0
30/05:00pm 12.0 10.8 4.7 61 3.3 CALM 0 0 0 0 1027.5 1027.5 0.0
30/04:30pm 12.3 10.6 3.8 56 3.8 S 2 6 1 3 1027.3 1027.3 0.0
30/04:00pm 12.7 10.9 3.6 54 4.0 S 2 7 1 4 1027.3 1027.3 0.0
30/03:30pm 12.8 10.3 3.7 54 4.1 SSW 6 9 3 5 1027.2 1027.2 0.0
30/03:00pm 13.3 10.7 3.4 51 4.4 WSW 6 9 3 5 1027.1 1027.1 0.0
30/02:30pm 13.5 10.7 3.0 49 4.7 NNE 7 11 4 6 1027.0 1027.0 0.0
30/02:00pm 13.2 11.5 4.1 54 4.1 ESE 2 7 1 4 1027.1 1027.1 0.0
30/01:30pm 12.0 10.2 5.2 63 3.1 SSE 4 9 2 5 1027.3 1027.3 0.0
30/01:00pm 11.9 9.5 5.1 63 3.1 SSE 7 11 4 6 1027.5 1027.5 0.0
30/12:30pm 13.5 11.2 4.9 56 4.0 W 6 11 3 6 1027.9 1027.9 0.0
30/12:00pm 12.4 10.0 5.1 61 3.3 W 7 13 4 7 1028.3 1028.3 0.0
30/11:30am 12.2 10.1 5.6 64 3.1 NW 6 9 3 5 1028.8 1028.8 0.0
30/11:00am 11.3 9.0 5.8 69 2.5 N 7 11 4 6 1029.3 1029.3 0.0
30/10:30am 11.1 10.5 7.2 77 1.9 CALM 0 0 0 0 1029.6 1029.6 0.0
30/10:00am 8.9 7.9 5.8 81 1.4 CALM 0 0 0 0 1029.7 1029.7 0.0
30/09:30am 8.0 5.9 5.6 85 1.1 ENE 6 9 3 5 1029.5 1029.5 0.0
30/09:00am 7.5 5.7 5.6 88 0.8 ENE 4 9 2 5 1029.5 1029.5 0.0
30/08:30am 7.0 4.3 5.5 90 0.7 NE 9 11 5 6 1029.2 1029.2 0.0
30/08:00am 6.1 5.0 5.2 94 0.4 CALM 0 0 0 0 1029.2 1029.2 0.0
30/07:30am 6.3 5.2 5.1 92 0.5 CALM 0 0 0 0 1029.0 1029.0 0.0
30/07:00am 6.3 5.2 5.1 92 0.5 CALM 0 4 0 2 1029.0 1029.0 0.0
30/06:30am 6.2 3.9 4.8 91 0.6 E 6 9 3 5 1028.9 1028.9 0.0
30/06:00am 6.1 3.3 5.2 94 0.4 NNE 9 13 5 7 1028.7 1028.7 0.0
30/05:30am 5.5 4.4 4.9 96 0.3 CALM 0 0 0 0 1028.7 1028.7 0.0
30/05:00am 5.6 4.5 5.0 96 0.3 CALM 0 7 0 4 1028.7 1028.7 0.0
30/04:30am 6.1 4.7 5.5 96 0.3 SSE 2 7 1 4 1028.6 1028.6 0.0
30/04:00am 6.1 5.1 5.8 98 0.1 CALM 0 0 0 0 1028.7 1028.7 0.0
30/03:30am 6.1 4.4 5.8 98 0.1 NNE 4 9 2 5 1028.9 1028.9 0.0
30/03:00am 5.8 3.7 5.8 100 0.0 ENE 6 9 3 5 1028.9 1028.9 0.0
30/02:30am 5.1 4.0 5.1 100 0.0 CALM 0 0 0 0 1028.7 1028.7 0.0
30/02:00am 5.1 4.0 5.1 100 0.0 CALM 0 0 0 0 1028.9 1028.9 0.0
30/01:30am 5.2 4.1 5.2 100 0.0 CALM 0 0 0 0 1029.1 1029.1 0.0
30/01:00am 5.3 3.1 5.3 100 0.0 ESE 6 7 3 4 1029.3 1029.3 0.0
30/12:30am 5.6 4.6 5.6 100 0.0 CALM 0 0 0 0 1029.6 1029.6 0.0
30/12:00am 5.6 4.6 5.6 100 0.0 CALM 0 0 0 0 1030.0 1030.0 0.0
 
Date/Time
EST
Tmp

°C
App
Tmp
°C
Dew
Point
°C
Rel
Hum
%
Delta-T

°C
Wind Press
QNH
hPa
Press
MSL
hPa
Rain
since
9 am
mm
Dir
 
Spd
km/h
Gust
km/h
Spd
kts
Gust
kts
29/11:30pm 5.5 4.5 5.4 99 0.0 CALM 0 6 0 3 1030.0 1030.0 0.0
29/11:00pm 5.7 4.7 5.6 99 0.0 CALM 0 0 0 0 1030.0 1030.0 0.0
29/10:30pm 5.9 4.9 5.8 99 0.0 CALM 0 0 0 0 1030.0 1030.0 0.0
29/10:00pm 6.0 5.0 5.7 98 0.1 CALM 0 0 0 0 1030.3 1030.3 0.0
29/09:30pm 6.1 5.1 5.7 97 0.2 CALM 0 0 0 0 1030.4 1030.4 0.0
29/09:00pm 6.3 5.3 5.7 96 0.3 CALM 0 0 0 0 1030.6 1030.6 0.0
29/08:30pm 6.7 5.8 6.0 95 0.3 CALM 0 0 0 0 1030.9 1030.9 0.0
29/08:00pm 6.8 5.9 5.9 94 0.4 CALM 0 0 0 0 1030.9 1030.9 0.0

Latest Capital City Observations: Canberra | Sydney | Melbourne | Brisbane | Adelaide | Perth | Hobart | Darwin

Other Formats:

Comma delimited format used in spreadsheet applications
http://www.bom.gov.au/fwo/IDV60901/IDV60901.95936.axf

JavaScript Object Notation format (JSON) in row-major order
http://www.bom.gov.au/fwo/IDV60901/IDV60901.95936.json